This is the latest recevied weather packets stored in our database for station/object G1SCQ. If no packets are shown the sender has not sent any weather packets the latest 1 day(s).
| Time | Temp. | Humidity | Pressure | Rain* | Wind** | Luminosity | Snow |
|---|---|---|---|---|---|---|---|
| 1778095626 | 6.67° C | 95% | 1014.7 hPa | 0 mm | - | 0 W/m² | - |
| 1778095086 | 6.67° C | 95% | 1014.8 hPa | 0 mm | - | 1 W/m² | - |
| 1778094546 | 6.67° C | 95% | 1014.6 hPa | 0 mm | - | 1 W/m² | - |
| 1778094006 | 6.67° C | 96% | 1014.5 hPa | 0 mm | - | 2 W/m² | - |
| 1778090046 | 7.22° C | 96% | 1014 hPa | 0 mm | - | 11 W/m² | - |
| 1778088965 | 7.22° C | 96% | 1013.9 hPa | 0 mm | - | 15 W/m² | - |
| 1778080145 | 8.89° C | 92% | 1013.6 hPa | 0 mm | - | 121 W/m² | - |
| 1778078165 | 9.44° C | 90% | 1013.6 hPa | 0 mm | - | 94 W/m² | - |
| 1778077085 | 9.44° C | 89% | 1013.5 hPa | 0 mm | - | 121 W/m² | - |
| 1778076545 | 9.44° C | 90% | 1013.7 hPa | 0 mm | - | 273 W/m² | - |
| 1778076005 | 9.44° C | 90% | 1013.7 hPa | 0 mm | - | 198 W/m² | - |
| 1778075105 | 9.44° C | 90% | 1013.8 hPa | 0 mm | - | 204 W/m² | - |
| 1778074025 | 10° C | 90% | 1013.6 hPa | 0 mm | - | 231 W/m² | - |
| 1778073485 | 10° C | 90% | 1013.5 hPa | 0 mm | - | 326 W/m² | - |
| 1778072945 | 9.44° C | 91% | 1013.8 hPa | 0 mm | - | 220 W/m² | - |
| 1778071505 | 8.89° C | 94% | 1013.5 hPa | 0 mm | - | 201 W/m² | - |
| 1778070425 | 8.33° C | 95% | 1013.7 hPa | 0 mm | - | 125 W/m² | - |
| 1778069345 | 7.22° C | 95% | 1013.6 hPa | 0 mm | - | 126 W/m² | - |
| 1778067905 | 6.67° C | 94% | 1013.9 hPa | 0 mm | - | 102 W/m² | - |
| 1778067365 | 7.22° C | 95% | 1014 hPa | 0 mm | - | 84 W/m² | - |
| 1778066825 | 7.22° C | 94% | 1013.8 hPa | 0 mm | - | 126 W/m² | - |
| 1778065745 | 7.78° C | 92% | 1013.7 hPa | 0 mm | - | 93 W/m² | - |
| 1778065205 | 8.89° C | 88% | 1013.8 hPa | 0 mm | - | 51 W/m² | - |
| 1778064845 | 8.89° C | 86% | 1013.7 hPa | 0 mm | - | 62 W/m² | - |
| 1778063225 | 8.89° C | 86% | 1013.8 hPa | 0 mm | - | 93 W/m² | - |
* Rain latest hour (hover to see other rain measurements)
** Current wind speed in m/s (hover to see current wind gust speed)